createdAt,value
2019-05-02T00:01:24.335Z,99.90
2019-05-02T00:03:51.979Z,99.90
2019-05-02T00:06:19.607Z,99.90
2019-05-02T00:08:47.426Z,99.90
2019-05-02T00:11:15.399Z,99.90
2019-05-02T00:13:43.107Z,99.90
2019-05-02T00:16:14.042Z,99.90
2019-05-02T00:18:40.182Z,99.90
2019-05-02T00:21:07.980Z,99.90
2019-05-02T00:23:35.691Z,99.90
2019-05-02T00:26:03.387Z,99.90
2019-05-02T00:28:32.087Z,99.90
2019-05-02T00:30:59.723Z,99.90
2019-05-02T00:33:29.361Z,99.90
2019-05-02T00:35:56.722Z,99.90
2019-05-02T00:38:24.440Z,99.90
2019-05-02T00:40:52.071Z,99.90
2019-05-02T00:43:19.722Z,99.90
2019-05-02T00:45:47.431Z,99.90
2019-05-02T00:48:23.069Z,99.90
2019-05-02T00:50:50.627Z,99.90
2019-05-02T00:53:19.468Z,99.90
2019-05-02T00:55:47.103Z,99.90
2019-05-02T00:58:15.703Z,99.90
2019-05-02T01:01:01.340Z,99.90
2019-05-02T01:03:32.101Z,99.90
2019-05-02T01:05:59.856Z,99.90
2019-05-02T01:08:30.933Z,99.90
2019-05-02T01:10:58.024Z,99.90
2019-05-02T01:13:25.775Z,99.90
2019-05-02T01:15:53.391Z,99.90
2019-05-02T01:18:22.686Z,99.90
2019-05-02T01:20:50.315Z,99.90
2019-05-02T01:23:17.954Z,99.90
2019-05-02T01:38:26.256Z,99.90
2019-05-02T01:43:29.730Z,99.90
2019-05-02T01:45:57.357Z,99.90
2019-05-02T01:50:52.415Z,99.90
2019-05-02T01:53:20.114Z,99.90
2019-05-02T01:55:51.904Z,99.90
2019-05-02T01:58:21.017Z,99.90
2019-05-02T02:00:46.523Z,99.90
2019-05-02T02:03:14.157Z,99.90
2019-05-02T02:05:41.967Z,99.90
2019-05-02T02:08:09.663Z,99.90
2019-05-02T02:10:37.335Z,99.90
2019-05-02T02:13:05.328Z,99.90
2019-05-02T02:15:33.094Z,99.90
2019-05-02T02:18:00.722Z,99.90
2019-05-02T02:20:35.975Z,99.90
2019-05-02T02:23:05.248Z,99.90
2019-05-02T02:25:47.522Z,99.90
2019-05-02T02:28:15.163Z,99.90
2019-05-02T02:30:42.876Z,99.90
2019-05-02T02:35:49.732Z,99.90
2019-05-02T02:38:09.406Z,99.90
2019-05-02T02:40:37.121Z,99.90
2019-05-02T02:43:29.957Z,99.90
2019-05-02T02:45:43.499Z,99.90
2019-05-02T02:48:12.134Z,99.90
2019-05-02T02:50:43.044Z,99.90
2019-05-02T02:53:09.122Z,99.90
2019-05-02T02:55:36.762Z,99.90
2019-05-02T02:58:06.540Z,99.90
2019-05-02T03:00:34.288Z,99.90
2019-05-02T03:03:01.927Z,99.90
2019-05-02T03:05:29.562Z,99.90
2019-05-02T03:07:59.552Z,99.90
2019-05-02T03:10:26.560Z,99.90
2019-05-02T03:12:55.835Z,99.90
2019-05-02T03:15:28.043Z,99.90
2019-05-02T03:18:00.021Z,99.90
2019-05-02T03:20:23.813Z,99.90
2019-05-02T03:22:51.446Z,99.90
2019-05-02T03:25:25.121Z,99.90
2019-05-02T03:27:49.440Z,99.90
2019-05-02T03:30:31.006Z,99.90
2019-05-02T03:33:03.628Z,99.90
2019-05-02T03:35:18.886Z,99.90
2019-05-02T03:37:51.405Z,99.90
2019-05-02T03:40:14.497Z,99.90
2019-05-02T03:42:44.662Z,99.90
2019-05-02T03:45:11.554Z,99.90
2019-05-02T03:47:43.971Z,99.90
2019-05-02T03:50:09.561Z,99.90
2019-05-02T03:52:43.430Z,99.90
2019-05-02T03:55:07.079Z,99.90
2019-05-02T03:57:36.123Z,99.90
2019-05-02T04:00:05.641Z,99.90
2019-05-02T04:02:33.275Z,99.90
2019-05-02T04:05:02.890Z,99.90
2019-05-02T04:07:39.626Z,99.90
2019-05-02T04:09:59.790Z,99.90
2019-05-02T04:12:27.445Z,99.90
2019-05-02T04:14:55.900Z,99.90
2019-05-02T04:17:28.883Z,99.90
2019-05-02T04:19:53.962Z,99.90
2019-05-02T04:22:21.611Z,99.90
2019-05-02T04:24:54.362Z,99.90
2019-05-02T04:34:42.294Z,99.90
2019-05-02T04:37:09.916Z,99.90
2019-05-02T04:39:39.109Z,99.90
2019-05-02T04:42:15.981Z,99.90
2019-05-02T04:44:52.796Z,99.90
2019-05-02T04:47:13.741Z,99.90
2019-05-02T04:49:36.130Z,99.90
2019-05-02T04:52:07.838Z,99.90
2019-05-02T04:54:33.829Z,99.90
2019-05-02T04:57:02.383Z,99.90
2019-05-02T04:59:32.981Z,99.90
2019-05-02T05:02:01.395Z,99.90
2019-05-02T05:04:33.418Z,99.90
2019-05-02T05:07:01.239Z,99.90
2019-05-02T05:09:28.756Z,99.90
2019-05-02T05:11:59.019Z,99.90
2019-05-02T05:14:32.844Z,99.90
2019-05-02T05:16:56.078Z,99.90
2019-05-02T05:19:28.681Z,99.90
2019-05-02T05:21:58.831Z,99.90
2019-05-02T05:26:57.821Z,99.90
2019-05-02T05:29:27.000Z,99.90
2019-05-02T05:32:05.139Z,99.90
2019-05-02T05:34:30.723Z,99.90
2019-05-02T05:36:54.328Z,99.90
2019-05-02T05:39:22.088Z,99.90
2019-05-02T05:41:52.259Z,99.90
2019-05-02T05:44:23.175Z,99.90
2019-05-02T05:46:50.390Z,99.90
2019-05-02T05:49:21.631Z,99.90
2019-05-02T05:51:49.360Z,99.90
2019-05-02T05:54:17.836Z,99.90
2019-05-02T05:56:45.621Z,99.90
2019-05-02T05:59:13.259Z,99.90
2019-05-02T06:01:40.974Z,99.90
2019-05-02T06:04:08.653Z,99.90
2019-05-02T06:06:37.751Z,99.90
2019-05-02T06:09:06.598Z,99.90
2019-05-02T06:11:34.247Z,99.90
2019-05-02T06:14:01.888Z,99.90
2019-05-02T06:16:29.555Z,99.90
2019-05-02T06:18:57.219Z,99.90
2019-05-02T06:23:52.244Z,99.90
2019-05-02T06:26:19.900Z,99.90
2019-05-02T06:28:48.559Z,99.90
2019-05-02T06:31:17.180Z,99.90
2019-05-02T06:36:12.488Z,99.90
2019-05-02T06:38:40.135Z,99.90
2019-05-02T06:41:07.790Z,99.90
2019-05-02T06:43:35.432Z,99.90
2019-05-02T06:53:26.842Z,99.90
2019-05-02T06:55:54.494Z,99.90
2019-05-02T06:58:22.141Z,99.90
2019-05-02T07:00:57.287Z,99.90
2019-05-02T07:03:19.199Z,99.90
2019-05-02T07:08:16.934Z,99.90
2019-05-02T07:10:45.262Z,99.90
2019-05-02T07:13:15.066Z,99.90
2019-05-02T07:18:24.935Z,99.90
2019-05-02T07:20:52.680Z,99.90
2019-05-02T07:23:20.375Z,99.90
2019-05-02T07:30:43.928Z,99.90
2019-05-02T07:33:11.675Z,99.90
2019-05-02T07:35:39.310Z,99.90
2019-05-02T07:38:06.966Z,99.90
2019-05-02T07:40:34.682Z,99.90
2019-05-02T07:43:02.344Z,99.90
2019-05-02T07:45:29.991Z,99.90
2019-05-02T07:52:52.405Z,99.90
2019-05-02T07:55:20.067Z,99.90
2019-05-02T07:57:47.731Z,99.90
2019-05-02T08:00:15.852Z,99.90
2019-05-02T08:02:43.744Z,99.90
2019-05-02T08:05:15.773Z,99.90
2019-05-02T08:07:40.895Z,99.90
2019-05-02T08:10:08.720Z,99.90
2019-05-02T08:15:07.389Z,99.90
2019-05-02T08:17:34.632Z,99.90
2019-05-02T08:20:04.747Z,99.90
2019-05-02T08:22:31.744Z,99.90
2019-05-02T08:24:59.424Z,99.90
2019-05-02T08:27:29.314Z,99.90
2019-05-02T08:32:27.111Z,99.90
2019-05-02T08:34:54.776Z,99.90
2019-05-02T08:37:22.421Z,99.90
2019-05-02T08:39:50.087Z,99.90
2019-05-02T08:42:17.746Z,99.90
2019-05-02T08:44:51.155Z,99.90
2019-05-02T08:47:19.082Z,99.90
2019-05-02T08:49:44.162Z,99.90
2019-05-02T08:52:11.812Z,99.90
2019-05-02T08:57:06.835Z,99.90
2019-05-02T08:59:34.494Z,99.90
2019-05-02T09:02:04.928Z,99.90
2019-05-02T09:04:32.575Z,99.90
2019-05-02T09:07:00.764Z,99.90
2019-05-02T09:12:08.994Z,99.90
2019-05-02T09:14:26.643Z,99.90
2019-05-02T09:16:54.286Z,99.90
2019-05-02T09:19:26.294Z,99.90
2019-05-02T09:24:23.231Z,99.90
2019-05-02T09:26:51.782Z,99.90
2019-05-02T09:29:19.144Z,99.90
2019-05-02T09:31:46.802Z,99.90
2019-05-02T09:34:17.158Z,99.90
2019-05-02T09:39:11.864Z,99.90
2019-05-02T09:41:41.799Z,99.90
2019-05-02T09:44:13.287Z,99.90
2019-05-02T09:46:38.391Z,99.90
2019-05-02T09:49:11.869Z,99.90
2019-05-02T09:51:35.403Z,99.90
2019-05-02T09:54:06.304Z,99.90
2019-05-02T09:56:32.603Z,99.90
2019-05-02T10:03:59.464Z,99.90
2019-05-02T10:06:27.127Z,99.90
2019-05-02T10:08:55.835Z,99.90
2019-05-02T10:11:26.068Z,99.90
2019-05-02T10:13:55.374Z,99.90
2019-05-02T10:16:23.652Z,99.90
2019-05-02T10:18:52.306Z,99.90
2019-05-02T10:21:20.312Z,99.90
2019-05-02T10:23:51.832Z,99.90
2019-05-02T10:26:20.560Z,99.90
2019-05-02T10:31:16.056Z,99.90
2019-05-02T10:33:43.700Z,99.90
2019-05-02T10:36:19.436Z,99.90
2019-05-02T10:38:42.600Z,99.90
2019-05-02T10:41:11.942Z,99.90
2019-05-02T10:43:39.472Z,99.90
2019-05-02T10:46:14.308Z,99.90
2019-05-02T10:48:43.597Z,99.90
2019-05-02T10:51:18.295Z,99.90
2019-05-02T10:53:47.088Z,99.90
2019-05-02T10:56:15.333Z,99.90
2019-05-02T10:58:42.996Z,99.90
2019-05-02T11:01:12.707Z,99.90
2019-05-02T11:03:47.444Z,99.90
2019-05-02T11:06:14.281Z,99.90
2019-05-02T11:08:45.874Z,99.90
2019-05-02T11:11:12.668Z,99.90
2019-05-02T11:13:55.431Z,99.90
2019-05-02T11:16:21.901Z,99.90
2019-05-02T11:18:53.832Z,99.90
2019-05-02T11:23:52.468Z,99.90
2019-05-02T11:26:21.512Z,99.90
2019-05-02T11:28:49.667Z,99.90
2019-05-02T11:31:17.496Z,99.90
2019-05-02T11:33:45.144Z,99.90
2019-05-02T11:36:13.716Z,99.90
2019-05-02T11:38:45.480Z,99.90
2019-05-02T11:41:11.916Z,99.90
2019-05-02T11:43:42.401Z,99.90
2019-05-02T11:46:09.050Z,99.90
2019-05-02T11:48:36.705Z,99.90
2019-05-02T11:51:07.306Z,99.90
2019-05-02T11:53:34.423Z,99.90
2019-05-02T11:56:03.715Z,99.90
2019-05-02T11:58:32.504Z,99.90
2019-05-02T12:01:04.856Z,99.90
2019-05-02T12:03:35.507Z,99.90
2019-05-02T12:06:01.958Z,99.90
2019-05-02T12:08:31.827Z,99.90
2019-05-02T12:11:01.280Z,99.90
2019-05-02T12:13:28.648Z,99.90
2019-05-02T12:15:56.343Z,99.90
2019-05-02T12:18:24.087Z,99.90
2019-05-02T12:20:52.151Z,99.90
2019-05-02T12:25:47.313Z,99.90
2019-05-02T12:28:15.959Z,99.90
2019-05-02T12:30:43.608Z,99.90
2019-05-02T12:33:12.271Z,99.90
2019-05-02T12:35:40.146Z,99.90
2019-05-02T12:40:35.167Z,99.10
2019-05-02T12:43:02.827Z,97.30
2019-05-02T12:45:30.480Z,97.80
2019-05-02T12:50:25.496Z,94.70
2019-05-02T12:52:55.602Z,92.00
2019-05-02T12:55:22.598Z,87.60
2019-05-02T12:57:52.155Z,91.60
2019-05-02T13:02:52.546Z,93.70
2019-05-02T13:07:55.090Z,93.90
2019-05-02T13:10:21.954Z,92.00
2019-05-02T13:12:49.666Z,94.10
2019-05-02T13:15:17.431Z,94.70
2019-05-02T13:17:48.923Z,95.10
2019-05-02T13:20:16.411Z,95.40
2019-05-02T13:22:45.707Z,95.00
2019-05-02T13:25:14.512Z,92.90
2019-05-02T13:30:21.841Z,93.10
2019-05-02T13:32:53.745Z,92.20
2019-05-02T13:38:02.765Z,92.30
2019-05-02T13:40:38.370Z,92.90
2019-05-02T13:43:06.012Z,91.00
2019-05-02T13:45:35.337Z,87.20
2019-05-02T13:48:03.005Z,77.90
2019-05-02T13:50:31.690Z,81.50
2019-05-02T13:52:59.468Z,72.00
2019-05-02T13:55:31.805Z,77.10
2019-05-02T14:00:28.603Z,77.60
2019-05-02T14:02:56.272Z,76.20
2019-05-02T14:05:23.933Z,73.50
2019-05-02T14:07:57.072Z,72.90
2019-05-02T14:10:24.262Z,70.40
2019-05-02T14:12:59.360Z,72.50
2019-05-02T14:15:28.680Z,80.10
2019-05-02T14:17:56.315Z,79.40
2019-05-02T14:20:23.992Z,81.90
2019-05-02T14:22:52.738Z,82.80
2019-05-02T14:25:22.291Z,80.40
2019-05-02T14:27:53.858Z,72.70
2019-05-02T14:30:35.671Z,77.10
2019-05-02T14:32:52.438Z,78.00
2019-05-02T14:35:28.128Z,74.20
2019-05-02T14:38:13.317Z,75.80
2019-05-02T14:40:51.884Z,78.10
2019-05-02T14:43:38.046Z,80.70
2019-05-02T14:46:06.745Z,74.90
2019-05-02T14:48:43.637Z,73.50
2019-05-02T14:51:08.399Z,72.30
2019-05-02T14:53:36.099Z,73.10
2019-05-02T14:56:12.507Z,75.90
2019-05-02T14:58:40.245Z,73.60
2019-05-02T15:01:08.351Z,77.30
2019-05-02T15:03:36.078Z,78.30
2019-05-02T15:06:06.908Z,79.20
2019-05-02T15:08:36.831Z,78.10
2019-05-02T15:11:03.436Z,80.50
2019-05-02T15:13:32.292Z,81.40
2019-05-02T15:18:29.678Z,79.00
2019-05-02T15:23:24.686Z,99.90
2019-05-02T15:25:55.954Z,99.90
2019-05-02T15:28:22.836Z,77.60
2019-05-02T15:30:57.943Z,76.40
2019-05-02T15:33:25.691Z,78.70
2019-05-02T15:36:02.219Z,78.80
2019-05-02T15:38:28.175Z,81.50
2019-05-02T15:40:59.356Z,77.80
2019-05-02T15:43:25.439Z,75.70
2019-05-02T15:48:26.086Z,73.80
2019-05-02T15:50:54.581Z,75.30
2019-05-02T15:53:23.578Z,74.30
2019-05-02T15:55:52.676Z,75.70
2019-05-02T15:58:26.091Z,72.30
2019-05-02T16:01:01.720Z,70.40
2019-05-02T16:03:46.799Z,67.40
2019-05-02T16:06:16.389Z,63.10
2019-05-02T16:13:47.026Z,59.30
2019-05-02T16:16:13.157Z,62.40
2019-05-02T16:18:43.518Z,63.30
2019-05-02T16:21:18.332Z,61.60
2019-05-02T16:24:04.236Z,60.60
2019-05-02T16:26:35.262Z,63.30
2019-05-02T16:28:59.990Z,60.30
2019-05-02T16:31:28.323Z,60.80
2019-05-02T16:33:57.509Z,58.60
2019-05-02T16:36:32.850Z,61.90
2019-05-02T16:38:54.555Z,65.70
2019-05-02T16:41:22.211Z,62.10
2019-05-02T16:46:17.471Z,63.10
2019-05-02T16:48:45.131Z,61.50
2019-05-02T16:51:30.288Z,63.20
2019-05-02T16:53:42.697Z,63.60
2019-05-02T16:56:11.571Z,66.40
2019-05-02T16:58:43.416Z,68.10
2019-05-02T17:01:08.910Z,68.50
2019-05-02T17:06:04.032Z,68.20
2019-05-02T17:08:33.302Z,68.40
2019-05-02T17:11:02.623Z,69.90
2019-05-02T17:13:34.297Z,70.50
2019-05-02T17:18:27.080Z,71.60
2019-05-02T17:20:56.811Z,73.90
2019-05-02T17:25:52.182Z,74.50
2019-05-02T17:28:19.931Z,76.40
2019-05-02T17:30:47.594Z,77.50
2019-05-02T17:33:16.510Z,93.10
2019-05-02T17:35:49.640Z,81.30
2019-05-02T17:38:13.592Z,93.80
2019-05-02T17:40:42.231Z,86.10
2019-05-02T17:43:09.951Z,78.80
2019-05-02T17:45:38.592Z,79.20
2019-05-02T17:50:42.078Z,78.50
2019-05-02T17:53:09.490Z,80.00
2019-05-02T17:55:40.504Z,81.20
2019-05-02T17:58:12.377Z,81.20
2019-05-02T18:00:40.427Z,81.50
2019-05-02T18:03:08.095Z,82.40
2019-05-02T18:05:35.890Z,83.50
2019-05-02T18:08:06.079Z,84.90
2019-05-02T18:10:33.559Z,85.80
2019-05-02T18:13:04.034Z,87.00
2019-05-02T18:15:34.667Z,90.50
2019-05-02T18:20:30.067Z,99.90
2019-05-02T18:22:57.714Z,99.90
2019-05-02T18:25:25.451Z,91.70
2019-05-02T18:27:53.086Z,96.70
2019-05-02T18:30:22.870Z,93.40
2019-05-02T18:32:52.708Z,94.50
2019-05-02T18:35:21.914Z,99.90
2019-05-02T18:37:49.358Z,99.90
2019-05-02T18:40:20.129Z,99.90
2019-05-02T18:50:26.457Z,99.90
2019-05-02T18:52:54.181Z,99.90
2019-05-02T19:00:20.167Z,99.90
2019-05-02T19:02:47.891Z,99.90
2019-05-02T19:05:19.257Z,99.90
2019-05-02T19:07:47.367Z,99.90
2019-05-02T19:10:14.688Z,99.90
2019-05-02T19:12:42.402Z,99.90
2019-05-02T19:15:10.219Z,99.90
2019-05-02T19:17:39.144Z,99.90
2019-05-02T19:20:10.927Z,99.90
2019-05-02T19:22:48.208Z,99.90
2019-05-02T19:25:07.623Z,99.90
2019-05-02T19:27:52.159Z,99.90
2019-05-02T19:30:34.956Z,99.90
2019-05-02T19:33:07.507Z,99.90
2019-05-02T19:35:32.767Z,99.90
2019-05-02T19:38:02.525Z,99.90
2019-05-02T19:40:31.672Z,99.90
2019-05-02T19:43:05.980Z,99.90
2019-05-02T19:45:28.842Z,99.90
2019-05-02T19:47:57.760Z,99.90
2019-05-02T19:50:32.299Z,99.90
2019-05-02T19:53:02.105Z,99.90
2019-05-02T19:55:28.735Z,99.90
2019-05-02T19:57:56.617Z,99.90
2019-05-02T20:00:24.574Z,99.90
2019-05-02T20:02:52.354Z,99.90
2019-05-02T20:05:24.130Z,99.90
2019-05-02T20:07:49.443Z,99.90
2019-05-02T20:10:18.200Z,99.90
2019-05-02T20:12:48.307Z,99.90
2019-05-02T20:15:21.695Z,99.90
2019-05-02T20:17:46.514Z,99.90
2019-05-02T20:20:35.920Z,99.90
2019-05-02T20:23:15.224Z,99.90
2019-05-02T20:25:37.543Z,99.90
2019-05-02T20:28:01.959Z,99.90
2019-05-02T20:30:29.717Z,99.90
2019-05-02T20:32:57.346Z,99.90
2019-05-02T20:35:25.019Z,99.90
2019-05-02T20:37:52.687Z,99.90
2019-05-02T20:40:24.890Z,99.90
2019-05-02T20:42:52.831Z,99.90
2019-05-02T20:45:22.648Z,99.90
2019-05-02T20:47:49.898Z,99.90
2019-05-02T20:50:17.558Z,99.90
2019-05-02T20:52:45.187Z,99.90
2019-05-02T20:55:12.903Z,99.90
2019-05-02T20:57:42.040Z,99.90
2019-05-02T21:00:12.250Z,99.90
2019-05-02T21:02:39.971Z,99.90
2019-05-02T21:05:08.903Z,99.90
2019-05-02T21:07:52.400Z,99.90
2019-05-02T21:10:27.282Z,99.90
2019-05-02T21:12:54.930Z,99.90
2019-05-02T21:15:22.592Z,99.90
2019-05-02T21:17:50.284Z,99.90
2019-05-02T21:20:17.981Z,99.90
2019-05-02T21:22:45.615Z,99.90
2019-05-02T21:25:13.274Z,99.90
2019-05-02T21:27:41.834Z,99.90
2019-05-02T21:30:12.152Z,99.90
2019-05-02T21:32:39.572Z,99.90
2019-05-02T21:35:07.282Z,99.90
2019-05-02T21:37:34.953Z,99.90
2019-05-02T21:40:02.896Z,99.90
2019-05-02T21:42:31.856Z,99.90
2019-05-02T21:44:59.608Z,99.90
2019-05-02T21:47:27.251Z,99.90
2019-05-02T21:50:05.446Z,99.90
2019-05-02T21:52:34.731Z,99.90
2019-05-02T21:55:06.557Z,99.90
2019-05-02T21:57:34.259Z,99.90
2019-05-02T22:00:02.460Z,99.90
2019-05-02T22:02:30.239Z,99.90
2019-05-02T22:04:57.871Z,99.90
2019-05-02T22:07:25.525Z,99.90
2019-05-02T22:09:53.159Z,99.90
2019-05-02T22:12:22.541Z,99.90
2019-05-02T22:14:50.328Z,99.90
2019-05-02T22:17:18.007Z,99.90
2019-05-02T22:19:45.761Z,99.90
2019-05-02T22:22:13.694Z,99.90
2019-05-02T22:24:42.108Z,99.90
2019-05-02T22:27:09.874Z,99.90
2019-05-02T22:29:37.521Z,99.90
2019-05-02T22:32:05.181Z,99.90
2019-05-02T22:34:32.838Z,99.90
2019-05-02T22:37:01.930Z,99.90
2019-05-02T22:39:34.232Z,99.90
2019-05-02T22:42:04.502Z,99.90
2019-05-02T22:44:32.492Z,99.90
2019-05-02T22:47:00.263Z,99.90
2019-05-02T22:49:28.857Z,99.90
2019-05-02T22:51:56.505Z,99.90
2019-05-02T22:54:30.306Z,99.90
2019-05-02T22:56:53.491Z,99.90
2019-05-02T22:59:23.652Z,99.90
2019-05-02T23:01:52.691Z,99.90
2019-05-02T23:04:23.241Z,99.90
2019-05-02T23:06:49.210Z,99.90
2019-05-02T23:09:16.854Z,99.90
2019-05-02T23:11:44.508Z,99.90
2019-05-02T23:14:12.157Z,99.90
2019-05-02T23:16:42.374Z,99.90
2019-05-02T23:19:09.251Z,99.90
2019-05-02T23:21:36.899Z,99.90
2019-05-02T23:24:06.188Z,99.90
2019-05-02T23:26:38.359Z,99.90
2019-05-02T23:29:10.607Z,99.90
2019-05-02T23:31:38.230Z,99.90
2019-05-02T23:34:05.879Z,99.90
2019-05-02T23:36:33.521Z,99.90
2019-05-02T23:39:01.825Z,99.90
2019-05-02T23:41:29.623Z,99.90
2019-05-02T23:43:57.284Z,99.90
2019-05-02T23:46:24.923Z,99.90
2019-05-02T23:48:52.688Z,99.90
2019-05-02T23:51:20.390Z,99.90
2019-05-02T23:56:15.411Z,99.90
